Time;durP1;ratioP1;P1;durP2;ratioP2;P2;SDS_P1;SDS_P2;PMS_P1;PMS_P2;Temp;Humidity;BMP_temperature;BMP_pressure;BME280_temperature;BME280_humidity;BME280_pressure;Samples;Min_cycle;Max_cycle;Signal;HPM_P1;HPM_P2
2022/04/24 00:01:41;;;;;;;15.00;12.40;;;;;;;9.46;100.00;96219.47;5078815;28;20689;-61
2022/04/24 00:04:08;;;;;;;13.80;11.00;;;;;;;9.45;100.00;96208.13;5079128;28;20211;-62
2022/04/24 00:06:35;;;;;;;16.73;12.57;;;;;;;9.48;100.00;96202.53;5078800;28;20219;-61
2022/04/24 00:09:03;;;;;;;13.87;11.40;;;;;;;9.51;100.00;96196.16;5060411;28;20297;-62
2022/04/24 00:11:31;;;;;;;15.07;11.73;;;;;;;9.51;100.00;96201.41;5075849;28;20211;-61
2022/04/24 00:13:57;;;;;;;16.97;12.30;;;;;;;9.61;100.00;96196.94;5075740;28;20239;-62
2022/04/24 00:16:24;;;;;;;15.63;12.13;;;;;;;9.79;100.00;96211.81;5073852;28;20216;-61
2022/04/24 00:18:50;;;;;;;14.50;12.07;;;;;;;9.89;100.00;96204.69;5061189;28;20238;-61
2022/04/24 00:21:17;;;;;;;14.23;11.67;;;;;;;9.88;100.00;96207.47;5075567;28;20229;-61
2022/04/24 00:23:43;;;;;;;15.23;11.67;;;;;;;9.94;100.00;96204.22;5075563;28;20222;-61
2022/04/24 00:26:11;;;;;;;13.67;10.83;;;;;;;9.93;100.00;96207.84;5075064;28;20715;-61
2022/04/24 00:28:37;;;;;;;13.40;10.87;;;;;;;9.92;100.00;96200.91;5075211;28;20688;-61
2022/04/24 00:31:04;;;;;;;15.93;12.57;;;;;;;9.95;100.00;96201.44;5075510;28;20551;-62
2022/04/24 00:33:30;;;;;;;14.00;11.37;;;;;;;9.92;100.00;96198.28;5075065;28;20247;-61
2022/04/24 00:35:57;;;;;;;14.97;11.90;;;;;;;9.96;100.00;96187.28;5075042;28;20225;-64
2022/04/24 00:38:23;;;;;;;13.83;11.43;;;;;;;10.15;100.00;96181.06;5075298;28;20223;-62
2022/04/24 00:40:50;;;;;;;14.07;11.17;;;;;;;10.19;100.00;96183.25;5074541;28;20218;-62
2022/04/24 00:43:19;;;;;;;13.77;11.40;;;;;;;10.31;100.00;96170.66;5074123;28;20769;-62
2022/04/24 00:45:47;;;;;;;14.20;11.83;;;;;;;10.33;100.00;96166.06;5075153;28;20224;-62
2022/04/24 00:48:14;;;;;;;13.17;11.10;;;;;;;10.42;99.94;96157.22;5075074;28;20212;-62
2022/04/24 00:50:42;;;;;;;14.00;11.30;;;;;;;10.41;99.67;96160.84;5075105;28;20207;-62
2022/04/24 00:53:09;;;;;;;14.53;11.63;;;;;;;10.43;99.24;96166.78;5074996;28;20620;-62
2022/04/24 00:55:35;;;;;;;13.47;11.03;;;;;;;10.39;99.51;96160.16;5074327;28;20212;-62
2022/04/24 00:58:02;;;;;;;14.40;11.53;;;;;;;10.32;99.86;96157.28;5073867;28;20596;-62
2022/04/24 01:00:29;;;;;;;14.63;11.10;;;;;;;10.38;99.48;96155.84;5073086;28;20208;-62
2022/04/24 01:02:59;;;;;;;13.57;10.67;;;;;;;10.36;99.36;96147.25;5073085;28;20215;-61
2022/04/24 01:05:25;;;;;;;11.50;10.13;;;;;;;10.41;99.35;96152.91;5072721;28;20215;-62
2022/04/24 01:07:52;;;;;;;13.00;11.20;;;;;;;10.49;98.48;96147.69;5070102;28;20215;-62
2022/04/24 01:10:18;;;;;;;11.93;10.53;;;;;;;10.51;98.20;96145.75;5072770;28;20215;-61
2022/04/24 01:12:45;;;;;;;12.57;10.50;;;;;;;10.50;98.25;96139.63;5072636;28;20705;-62
2022/04/24 01:15:11;;;;;;;12.87;10.20;;;;;;;10.56;97.56;96136.38;5074536;28;20222;-62
2022/04/24 01:17:40;;;;;;;13.43;11.27;;;;;;;10.52;97.66;96126.28;5072610;28;20218;-62
2022/04/24 01:20:08;;;;;;;13.17;10.50;;;;;;;10.55;97.35;96125.94;5074436;28;20234;-64
2022/04/24 01:22:36;;;;;;;12.20;10.47;;;;;;;10.57;97.61;96140.66;5074206;28;20219;-64
2022/04/24 01:25:02;;;;;;;11.43;9.60;;;;;;;10.52;97.84;96136.84;5074152;28;20665;-62
2022/04/24 01:27:29;;;;;;;12.50;10.27;;;;;;;10.50;97.98;96142.25;5074178;28;20218;-63
2022/04/24 01:29:55;;;;;;;11.97;9.90;;;;;;;10.45;98.49;96143.72;5074204;28;20220;-61
2022/04/24 01:32:22;;;;;;;13.40;10.30;;;;;;;10.47;98.36;96144.38;5074085;28;20215;-64
2022/04/24 01:34:48;;;;;;;12.30;10.03;;;;;;;10.50;98.16;96146.69;5072310;28;20688;-62
2022/04/24 01:37:14;;;;;;;12.47;10.17;;;;;;;10.47;97.93;96154.94;5074117;28;20214;-62
2022/04/24 01:39:42;;;;;;;12.50;9.63;;;;;;;10.48;98.08;96151.31;5073978;28;20227;-62
2022/04/24 01:42:09;;;;;;;11.20;9.47;;;;;;;10.47;97.90;96160.22;5074129;28;20235;-63
2022/04/24 01:44:35;;;;;;;11.77;9.50;;;;;;;10.46;98.64;96153.28;5073963;28;20626;-62
2022/04/24 01:47:02;;;;;;;12.30;10.30;;;;;;;10.49;97.80;96152.97;5073790;28;20215;-62
2022/04/24 01:49:28;;;;;;;12.57;10.30;;;;;;;10.52;97.36;96148.22;5073982;28;20211;-61
2022/04/24 01:51:55;;;;;;;11.63;9.63;;;;;;;10.52;97.66;96157.97;5073975;28;20212;-61
2022/04/24 01:54:21;;;;;;;11.53;9.40;;;;;;;10.57;97.22;96156.50;5073757;28;20242;-62
2022/04/24 01:56:49;;;;;;;11.80;9.97;;;;;;;10.59;96.81;96167.75;5073773;28;20223;-62
2022/04/24 01:59:15;;;;;;;11.90;8.93;;;;;;;10.52;97.22;96165.88;5072424;28;20886;-62
2022/04/24 02:01:42;;;;;;;11.27;9.77;;;;;;;10.50;97.63;96173.13;5073489;28;20215;-63
2022/04/24 02:04:08;;;;;;;11.10;9.17;;;;;;;10.45;98.10;96167.47;5073648;28;20211;-62
2022/04/24 02:06:35;;;;;;;13.80;9.63;;;;;;;10.38;98.90;96177.81;5073414;28;20216;-63
2022/04/24 02:09:01;;;;;;;10.43;8.80;;;;;;;10.38;99.21;96203.38;5073368;28;20219;-63
2022/04/24 02:11:28;;;;;;;11.87;9.57;;;;;;;10.37;99.77;96209.66;5065509;28;20680;-62
2022/04/24 02:13:56;;;;;;;10.07;8.73;;;;;;;10.40;100.00;96212.81;5067364;28;20234;-62
2022/04/24 02:16:22;;;;;;;10.50;8.87;;;;;;;10.42;100.00;96215.31;5073221;28;20215;-61
2022/04/24 02:18:49;;;;;;;12.43;9.37;;;;;;;10.43;100.00;96224.88;5073586;28;20207;-62
2022/04/24 02:21:15;;;;;;;12.00;9.87;;;;;;;10.42;100.00;96228.50;5073135;28;20684;-62
2022/04/24 02:23:42;;;;;;;12.70;10.40;;;;;;;10.32;100.00;96225.09;5073114;28;20298;-62
2022/04/24 02:26:08;;;;;;;10.33;8.93;;;;;;;10.18;100.00;96212.44;5071292;28;20203;-62
2022/04/24 02:28:35;;;;;;;13.70;10.50;;;;;;;10.12;100.00;96223.59;5073020;28;20214;-62
2022/04/24 02:31:03;;;;;;;12.23;9.83;;;;;;;10.10;100.00;96228.19;5072393;28;20745;-62
2022/04/24 02:33:29;;;;;;;11.70;10.00;;;;;;;10.06;100.00;96229.47;5072843;28;20239;-63
2022/04/24 02:35:56;;;;;;;11.67;9.73;;;;;;;9.97;100.00;96225.06;5073161;28;20211;-61
2022/04/24 02:38:22;;;;;;;11.63;9.77;;;;;;;9.97;100.00;96235.63;5072840;28;20680;-61
2022/04/24 02:40:49;;;;;;;12.03;9.80;;;;;;;9.95;100.00;96232.28;5073149;28;20294;-63
2022/04/24 02:43:15;;;;;;;12.50;10.57;;;;;;;9.95;100.00;96238.38;5073237;28;20254;-62
2022/04/24 02:45:42;;;;;;;12.10;9.70;;;;;;;9.95;100.00;96232.28;5073205;28;20605;-62
2022/04/24 02:48:10;;;;;;;14.97;11.23;;;;;;;9.98;100.00;96245.19;5073071;28;20211;-61
2022/04/24 02:50:36;;;;;;;14.93;11.53;;;;;;;9.98;100.00;96263.66;5073206;28;20219;-62
2022/04/24 02:53:03;;;;;;;13.70;11.60;;;;;;;9.97;100.00;96267.28;5071536;28;20250;-62
2022/04/24 02:55:29;;;;;;;15.43;11.67;;;;;;;9.87;100.00;96259.41;5072845;28;20219;-61
2022/04/24 02:57:56;;;;;;;15.80;12.10;;;;;;;9.83;100.00;96259.81;5071267;28;20220;-61
2022/04/24 03:00:24;;;;;;;16.30;12.17;;;;;;;9.82;100.00;96258.19;5071014;28;20218;-62
2022/04/24 03:02:52;;;;;;;15.83;12.17;;;;;;;9.86;100.00;96243.72;5071141;28;20218;-61
2022/04/24 03:05:21;;;;;;;14.23;12.07;;;;;;;9.80;100.00;96239.03;5071129;28;20215;-62
2022/04/24 03:07:48;;;;;;;17.60;12.50;;;;;;;9.71;100.00;96235.47;5071334;28;20219;-63
2022/04/24 03:10:16;;;;;;;15.80;11.73;;;;;;;9.70;100.00;96248.78;5073027;28;20215;-61
2022/04/24 03:12:43;;;;;;;17.33;12.80;;;;;;;9.70;100.00;96239.09;5072487;28;20676;-63
2022/04/24 03:15:12;;;;;;;19.40;14.10;;;;;;;9.70;100.00;96238.25;5072689;28;20289;-62
2022/04/24 03:17:39;;;;;;;16.33;13.00;;;;;;;9.68;100.00;96234.94;5069566;28;20218;-60
2022/04/24 03:20:07;;;;;;;17.90;14.17;;;;;;;9.66;100.00;96236.91;5072815;28;20216;-61
2022/04/24 03:22:35;;;;;;;20.93;14.80;;;;;;;9.60;100.00;96240.13;5072476;28;20747;-61
2022/04/24 03:25:03;;;;;;;17.90;13.83;;;;;;;9.53;100.00;96239.00;5072406;28;20211;-61
2022/04/24 03:27:29;;;;;;;17.60;14.03;;;;;;;9.50;100.00;96232.25;5071126;28;20208;-60
2022/04/24 03:29:56;;;;;;;17.67;14.00;;;;;;;9.53;100.00;96223.19;5072829;28;20581;-60
2022/04/24 03:32:22;;;;;;;19.77;14.63;;;;;;;9.42;100.00;96229.50;5072731;28;20243;-61
2022/04/24 03:34:49;;;;;;;17.17;14.00;;;;;;;9.44;100.00;96227.56;5072543;28;20239;-61
2022/04/24 03:37:16;;;;;;;18.43;14.63;;;;;;;9.45;100.00;96228.38;5072246;28;20231;-62
2022/04/24 03:39:43;;;;;;;19.93;15.00;;;;;;;9.40;100.00;96236.72;5072563;28;20223;-62
2022/04/24 03:42:10;;;;;;;20.70;15.00;;;;;;;9.36;100.00;96240.59;5072537;28;20602;-62
2022/04/24 03:44:36;;;;;;;19.03;14.03;;;;;;;9.32;100.00;96243.69;5074527;28;20219;-63
2022/04/24 03:47:03;;;;;;;21.00;15.27;;;;;;;9.35;100.00;96253.94;5076173;28;20226;-62
2022/04/24 03:49:29;;;;;;;18.10;14.17;;;;;;;9.38;100.00;96245.75;5076163;28;20226;-63
2022/04/24 03:51:56;;;;;;;18.30;14.53;;;;;;;9.36;100.00;96253.78;5075975;28;20226;-63
2022/04/24 03:54:22;;;;;;;17.93;14.27;;;;;;;9.38;100.00;96249.22;5075949;28;20247;-63
2022/04/24 03:56:50;;;;;;;18.03;14.10;;;;;;;9.38;100.00;96251.00;5076053;28;20222;-62
2022/04/24 03:59:17;;;;;;;18.50;14.30;;;;;;;9.38;100.00;96248.38;5076035;28;20223;-63
2022/04/24 04:01:43;;;;;;;20.17;14.70;;;;;;;9.43;100.00;96252.22;5075742;28;20221;-63
2022/04/24 04:04:09;;;;;;;17.57;13.77;;;;;;;9.46;100.00;96249.31;5076029;28;20214;-61
2022/04/24 04:06:36;;;;;;;18.47;13.97;;;;;;;9.52;100.00;96251.38;5075910;28;20213;-62
2022/04/24 04:09:02;;;;;;;16.33;13.27;;;;;;;9.63;100.00;96260.91;5075523;28;20216;-62
2022/04/24 04:11:29;;;;;;;18.00;13.97;;;;;;;9.71;100.00;96263.63;5074416;28;20215;-61
2022/04/24 04:13:57;;;;;;;18.37;13.93;;;;;;;9.78;100.00;96256.84;5075725;28;20638;-62
2022/04/24 04:16:23;;;;;;;16.87;13.50;;;;;;;9.83;100.00;96255.41;5075625;28;20220;-61
2022/04/24 04:18:50;;;;;;;17.30;13.27;;;;;;;9.88;100.00;96262.88;5075599;28;20214;-61
2022/04/24 04:21:16;;;;;;;15.87;13.23;;;;;;;9.94;100.00;96267.56;5075572;28;20223;-62
2022/04/24 04:23:43;;;;;;;17.50;13.93;;;;;;;9.95;100.00;96264.78;5075730;28;20584;-62
2022/04/24 04:26:09;;;;;;;15.40;12.60;;;;;;;9.99;100.00;96258.25;5075576;28;20600;-62
2022/04/24 04:28:36;;;;;;;16.13;13.47;;;;;;;10.03;100.00;96262.25;5061085;28;20211;-62
2022/04/24 04:31:04;;;;;;;18.03;14.00;;;;;;;10.03;100.00;96266.69;5075285;28;20216;-62
2022/04/24 04:33:30;;;;;;;17.13;13.90;;;;;;;10.03;100.00;96264.06;5075059;28;20215;-62
2022/04/24 04:35:57;;;;;;;16.73;13.20;;;;;;;10.03;100.00;96266.69;5073586;28;20225;-61
2022/04/24 04:38:23;;;;;;;16.93;13.80;;;;;;;10.03;100.00;96266.69;5075248;28;20219;-62
2022/04/24 04:40:49;;;;;;;19.27;14.47;;;;;;;10.02;100.00;96275.56;5075386;28;20228;-63
2022/04/24 04:43:16;;;;;;;16.50;13.77;;;;;;;9.99;100.00;96286.41;5073733;28;20569;-63
2022/04/24 04:45:42;;;;;;;17.73;13.70;;;;;;;9.96;100.00;96291.97;5073956;28;20679;-63
2022/04/24 04:48:10;;;;;;;18.73;15.07;;;;;;;9.93;100.00;96297.56;5074811;28;20219;-63
2022/04/24 04:50:36;;;;;;;20.87;15.90;;;;;;;9.86;100.00;96301.75;5075114;28;20211;-63
2022/04/24 04:53:03;;;;;;;23.53;17.27;;;;;;;9.83;100.00;96323.16;5074903;28;20211;-62
2022/04/24 04:55:29;;;;;;;18.60;12.80;;;;;;;9.72;100.00;96326.00;5074723;28;20246;-61
2022/04/24 04:57:57;;;;;;;12.70;9.27;;;;;;;9.40;100.00;96325.50;5074780;28;20699;-60
2022/04/24 05:00:24;;;;;;;11.07;6.90;;;;;;;9.23;100.00;96329.72;5074974;28;20219;-60
2022/04/24 05:02:51;;;;;;;7.90;5.70;;;;;;;9.12;100.00;96331.69;5073393;28;20620;-56
2022/04/24 05:05:19;;;;;;;8.33;5.90;;;;;;;8.98;100.00;96324.19;5074567;28;20224;-57
2022/04/24 05:07:45;;;;;;;6.50;3.97;;;;;;;8.82;100.00;96339.75;5073059;28;20218;-56
2022/04/24 05:10:12;;;;;;;4.03;2.90;;;;;;;8.67;100.00;96344.59;5074892;28;20216;-57
2022/04/24 05:12:38;;;;;;;2.50;1.50;;;;;;;8.48;100.00;96349.84;5074825;28;20221;-58
2022/04/24 05:15:07;;;;;;;2.87;1.27;;;;;;;8.38;100.00;96358.69;5074391;28;20238;-60
2022/04/24 05:17:35;;;;;;;0.97;0.80;;;;;;;8.31;100.00;96354.91;5074478;28;20215;-60
2022/04/24 05:20:02;;;;;;;1.43;0.97;;;;;;;8.26;100.00;96365.03;5074282;28;20230;-62
2022/04/24 05:22:29;;;;;;;2.27;0.77;;;;;;;8.15;100.00;96370.38;5074317;28;20215;-61
2022/04/24 05:24:56;;;;;;;1.63;0.63;;;;;;;8.12;100.00;96373.25;5074399;28;20207;-61
2022/04/24 05:27:23;;;;;;;1.43;0.53;;;;;;;8.05;100.00;96365.06;5072698;28;20215;-62
2022/04/24 05:29:49;;;;;;;0.87;0.50;;;;;;;7.97;100.00;96382.47;5074423;28;20232;-61
2022/04/24 05:32:16;;;;;;;1.17;0.50;;;;;;;7.94;100.00;96382.72;5074373;28;20210;-63
2022/04/24 05:34:43;;;;;;;1.70;0.70;;;;;;;7.94;100.00;96380.94;5073936;28;20253;-60
2022/04/24 05:37:09;;;;;;;0.53;0.40;;;;;;;7.98;100.00;96378.88;5074160;28;20221;-62
2022/04/24 05:39:37;;;;;;;0.57;0.40;;;;;;;7.94;100.00;96377.47;5073841;28;20261;-63
2022/04/24 05:42:04;;;;;;;1.43;0.50;;;;;;;7.89;100.00;96377.88;5073745;28;20238;-63
2022/04/24 05:44:31;;;;;;;1.13;0.40;;;;;;;7.90;100.00;96379.53;5073857;28;20225;-61
2022/04/24 05:46:58;;;;;;;0.80;0.40;;;;;;;7.84;100.00;96381.88;5073699;28;20224;-62
2022/04/24 05:49:24;;;;;;;2.33;0.50;;;;;;;7.83;100.00;96374.97;5074012;28;20211;-61
2022/04/24 05:51:50;;;;;;;0.83;0.40;;;;;;;7.82;100.00;96379.38;5073994;28;20222;-63
2022/04/24 05:54:17;;;;;;;0.30;0.30;;;;;;;7.86;100.00;96385.19;5071913;28;20236;-62
2022/04/24 05:56:45;;;;;;;0.37;0.37;;;;;;;7.86;100.00;96385.19;5071869;28;20226;-61
2022/04/24 05:59:11;;;;;;;0.30;0.30;;;;;;;7.78;100.00;96374.50;5073541;28;20229;-61
2022/04/24 06:01:37;;;;;;;0.40;0.33;;;;;;;7.75;100.00;96382.66;5073597;28;20218;-62
2022/04/24 06:04:04;;;;;;;0.30;0.30;;;;;;;7.71;100.00;96376.81;5073408;28;20222;-63
2022/04/24 06:06:32;;;;;;;0.40;0.30;;;;;;;7.74;100.00;96371.31;5072524;28;20222;-61
2022/04/24 06:08:58;;;;;;;0.30;0.30;;;;;;;7.75;100.00;96369.50;5073552;28;20214;-62
2022/04/24 06:11:25;;;;;;;0.80;0.30;;;;;;;7.82;100.00;96373.25;5073624;28;20575;-61
2022/04/24 06:13:53;;;;;;;0.70;0.33;;;;;;;7.83;100.00;96369.69;5073427;28;20222;-61
2022/04/24 06:16:19;;;;;;;0.60;0.50;;;;;;;7.74;100.00;96370.47;5073275;28;20221;-61
2022/04/24 06:18:46;;;;;;;0.70;0.40;;;;;;;7.76;100.00;96363.28;5073451;28;20219;-61
2022/04/24 06:21:12;;;;;;;0.83;0.40;;;;;;;7.69;100.00;96357.72;5071770;28;20219;-63
2022/04/24 06:23:38;;;;;;;1.13;0.53;;;;;;;7.67;100.00;96370.19;5073349;28;20590;-63
2022/04/24 06:26:05;;;;;;;0.50;0.40;;;;;;;7.64;100.00;96364.31;5073313;28;20592;-63
2022/04/24 06:28:31;;;;;;;1.20;0.50;;;;;;;7.67;100.00;96374.59;5073319;28;20284;-65
2022/04/24 06:30:59;;;;;;;0.57;0.40;;;;;;;7.64;100.00;96374.84;5073173;28;20215;-65
2022/04/24 06:33:28;;;;;;;0.40;0.40;;;;;;;7.62;100.00;96368.88;5073134;28;20218;-63
2022/04/24 06:35:55;;;;;;;0.33;0.30;;;;;;;7.60;100.00;96373.44;5071087;28;20243;-63
2022/04/24 06:38:23;;;;;;;0.60;0.30;;;;;;;7.67;100.00;96374.59;5071736;28;20685;-63
2022/04/24 06:40:49;;;;;;;0.50;0.40;;;;;;;7.67;100.00;96371.97;5071986;28;20297;-63
2022/04/24 06:43:16;;;;;;;0.43;0.40;;;;;;;7.68;100.00;96371.84;5071408;28;20248;-65
2022/04/24 06:45:43;;;;;;;0.60;0.37;;;;;;;7.65;100.00;96373.91;5069961;28;20210;-64
2022/04/24 06:48:13;;;;;;;1.23;0.40;;;;;;;7.71;100.00;96376.00;5071913;28;20228;-64
2022/04/24 06:50:41;;;;;;;0.60;0.40;;;;;;;7.72;100.00;96372.41;5072082;28;20584;-64
2022/04/24 06:53:09;;;;;;;0.50;0.40;;;;;;;7.74;100.00;96381.84;5071824;28;20219;-65
2022/04/24 06:55:37;;;;;;;0.40;0.40;;;;;;;7.78;100.00;96382.41;5070272;28;20248;-65
2022/04/24 06:58:05;;;;;;;0.40;0.40;;;;;;;7.79;100.00;96384.06;5069014;28;20729;-65
2022/04/24 07:00:34;;;;;;;0.40;0.30;;;;;;;7.79;100.00;96389.31;5070591;28;20262;-65
2022/04/24 07:03:00;;;;;;;0.40;0.40;;;;;;;7.78;100.00;96392.91;5070720;28;20404;-64
2022/04/24 07:05:28;;;;;;;0.30;0.30;;;;;;;7.82;100.00;96391.66;5071376;28;20215;-63
2022/04/24 07:07:55;;;;;;;1.07;0.40;;;;;;;7.85;100.00;96394.06;5056667;28;20681;-64
2022/04/24 07:10:21;;;;;;;0.40;0.40;;;;;;;7.84;100.00;96400.28;5071553;28;20578;-63
2022/04/24 07:12:49;;;;;;;0.30;0.30;;;;;;;7.86;100.00;96400.97;5068288;28;20211;-64
2022/04/24 07:15:17;;;;;;;0.40;0.40;;;;;;;7.88;100.00;96406.94;5071454;28;20240;-65
2022/04/24 07:17:44;;;;;;;1.17;0.40;;;;;;;7.85;100.00;96412.47;5072426;28;20456;-64
2022/04/24 07:20:12;;;;;;;0.57;0.43;;;;;;;7.83;100.00;96420.47;5075398;28;20238;-63
2022/04/24 07:22:45;;;;;;;0.40;0.40;;;;;;;7.85;100.00;96418.53;5075565;28;20219;-65
2022/04/24 07:25:12;;;;;;;0.40;0.40;;;;;;;7.94;100.00;96415.13;5073858;28;20222;-65
2022/04/24 07:27:39;;;;;;;1.03;0.40;;;;;;;7.93;100.00;96417.88;5073755;28;20218;-65
2022/04/24 07:30:13;;;;;;;1.27;0.53;;;;;;;7.91;100.00;96419.84;5074075;28;20214;-64
2022/04/24 07:32:44;;;;;;;0.40;0.40;;;;;;;7.90;100.00;96426.06;5073828;28;20667;-65
2022/04/24 07:35:11;;;;;;;1.47;0.53;;;;;;;7.89;100.00;96434.91;5072656;28;20247;-65
2022/04/24 07:37:38;;;;;;;0.40;0.40;;;;;;;7.91;100.00;96435.59;5073940;28;20227;-64
2022/04/24 07:40:09;;;;;;;0.40;0.40;;;;;;;7.89;100.00;96445.44;5072323;28;20244;-64
2022/04/24 07:42:46;;;;;;;0.50;0.50;;;;;;;7.97;100.00;96435.91;5073698;28;20258;-65
2022/04/24 07:45:17;;;;;;;1.07;0.63;;;;;;;7.97;100.00;96435.09;5073388;28;20213;-66
2022/04/24 07:47:45;;;;;;;0.50;0.50;;;;;;;8.01;100.00;96444.38;5073763;28;20218;-65
2022/04/24 07:50:11;;;;;;;0.70;0.50;;;;;;;8.10;100.00;96446.22;5073657;28;20302;-64
2022/04/24 07:52:38;;;;;;;0.50;0.30;;;;;;;8.16;100.00;96446.53;5072887;28;20321;-64
2022/04/24 07:55:07;;;;;;;0.67;0.40;;;;;;;8.30;100.00;96448.00;5073157;28;20742;-63
2022/04/24 07:57:33;;;;;;;0.50;0.50;;;;;;;8.40;100.00;96448.88;5073543;28;20234;-64
2022/04/24 08:00:00;;;;;;;1.10;0.40;;;;;;;8.49;100.00;96442.78;5073510;28;20211;-64
2022/04/24 08:02:26;;;;;;;0.40;0.37;;;;;;;8.42;100.00;96441.66;5072519;28;20212;-65
2022/04/24 08:04:53;;;;;;;0.40;0.40;;;;;;;8.44;100.00;96439.75;5072690;28;20234;-65
2022/04/24 08:07:22;;;;;;;1.17;0.57;;;;;;;8.43;100.00;96449.44;5071820;28;20211;-65
2022/04/24 08:09:49;;;;;;;0.80;0.40;;;;;;;8.32;100.00;96443.44;5073061;28;20223;-64
2022/04/24 08:12:16;;;;;;;0.73;0.50;;;;;;;8.34;100.00;96444.94;5074528;28;20211;-65
2022/04/24 08:14:43;;;;;;;0.60;0.53;;;;;;;8.26;100.00;96443.97;5074449;28;20234;-65
2022/04/24 08:17:10;;;;;;;1.23;0.60;;;;;;;8.18;100.00;96452.50;5074572;28;20237;-65
2022/04/24 08:19:36;;;;;;;0.70;0.50;;;;;;;8.21;100.00;96454.06;5074410;28;20229;-65
2022/04/24 08:22:03;;;;;;;0.50;0.50;;;;;;;8.15;100.00;96452.75;5074332;28;20218;-65
2022/04/24 08:24:29;;;;;;;0.40;0.40;;;;;;;8.18;100.00;96455.13;5074062;28;20203;-65
2022/04/24 08:26:55;;;;;;;0.87;0.40;;;;;;;8.24;100.00;96453.78;5072787;28;20226;-64
2022/04/24 08:29:23;;;;;;;0.50;0.50;;;;;;;8.26;100.00;96457.94;5073308;28;20245;-65
2022/04/24 08:31:50;;;;;;;0.67;0.50;;;;;;;8.29;100.00;96456.84;5073386;28;20337;-65
2022/04/24 08:34:16;;;;;;;0.50;0.50;;;;;;;8.23;100.00;96467.91;5069720;28;20229;-65
2022/04/24 08:36:43;;;;;;;0.40;0.40;;;;;;;8.20;100.00;96466.38;5072422;28;20242;-65
2022/04/24 08:39:09;;;;;;;1.90;0.50;;;;;;;8.28;100.00;96465.72;5072708;28;20225;-65
2022/04/24 08:41:38;;;;;;;0.50;0.50;;;;;;;8.27;100.00;96474.59;5072320;28;20216;-64
2022/04/24 08:44:07;;;;;;;0.60;0.40;;;;;;;8.32;100.00;96472.41;5072066;28;20703;-64
2022/04/24 08:46:35;;;;;;;0.40;0.40;;;;;;;8.39;100.00;96473.53;5073690;28;20230;-64
2022/04/24 08:49:03;;;;;;;0.90;0.50;;;;;;;8.49;100.00;96484.91;5073921;28;20211;-64
2022/04/24 08:51:30;;;;;;;0.40;0.40;;;;;;;8.60;100.00;96490.09;5073764;28;20218;-64
2022/04/24 08:53:57;;;;;;;0.50;0.50;;;;;;;8.69;100.00;96502.47;5073672;28;20222;-64
2022/04/24 08:56:23;;;;;;;0.70;0.60;;;;;;;8.76;100.00;96498.31;5073642;28;20708;-65
2022/04/24 08:58:50;;;;;;;13.00;10.43;;;;;;;8.82;100.00;96503.06;5072364;28;20512;-64
2022/04/24 09:01:16;;;;;;;24.43;18.90;;;;;;;8.87;100.00;96500.84;5073122;28;20222;-63
2022/04/24 09:03:44;;;;;;;16.97;13.57;;;;;;;8.91;100.00;96510.13;5073463;28;20221;-65
2022/04/24 09:06:21;;;;;;;7.73;5.97;;;;;;;8.91;100.00;96508.34;5073477;28;20210;-64
2022/04/24 09:08:47;;;;;;;2.43;2.10;;;;;;;8.94;100.00;96513.31;5072241;28;20220;-65
2022/04/24 09:11:16;;;;;;;1.73;1.27;;;;;;;8.99;100.00;96520.84;5070571;28;20306;-63
2022/04/24 09:16:34;;;;;;;1.00;0.77;;;;;;;9.08;100.00;96520.00;5072490;28;20319;-65
2022/04/24 09:19:03;;;;;;;0.57;0.57;;;;;;;9.12;100.00;96524.06;5067102;28;20209;-64
2022/04/24 09:21:29;;;;;;;0.57;0.57;;;;;;;9.20;100.00;96524.19;5064991;28;20207;-65
2022/04/24 09:23:59;;;;;;;1.33;0.70;;;;;;;9.30;100.00;96519.78;5072581;28;20223;-64
2022/04/24 09:26:26;;;;;;;0.60;0.60;;;;;;;9.32;100.00;96516.03;5069939;28;20683;-64
2022/04/24 09:28:52;;;;;;;0.83;0.60;;;;;;;9.38;100.00;96519.91;5071835;28;20685;-63
2022/04/24 09:31:19;;;;;;;2.40;0.70;;;;;;;9.42;100.00;96511.59;5071891;28;20219;-63
2022/04/24 09:33:45;;;;;;;0.80;0.70;;;;;;;9.49;100.00;96517.16;5060906;28;20215;-62
2022/04/24 09:36:14;;;;;;;0.77;0.77;;;;;;;9.51;100.00;96518.69;5058005;28;20244;-63
2022/04/24 09:38:42;;;;;;;1.70;0.80;;;;;;;9.53;100.00;96515.88;5058297;28;20269;-62
2022/04/24 09:41:15;;;;;;;1.03;0.83;;;;;;;9.56;100.00;96515.63;5061335;28;20215;-62
2022/04/24 09:43:42;;;;;;;0.87;0.60;;;;;;;9.62;100.00;96520.34;5061290;28;20239;-62
2022/04/24 09:46:09;;;;;;;0.80;0.80;;;;;;;9.66;100.00;96524.38;5058844;28;20208;-63
2022/04/24 09:48:35;;;;;;;1.07;0.97;;;;;;;9.68;100.00;96528.53;5058446;28;20595;-62
2022/04/24 09:51:03;;;;;;;0.93;0.70;;;;;;;9.71;100.00;96536.16;5071947;28;20223;-63
2022/04/24 09:53:32;;;;;;;0.80;0.80;;;;;;;9.74;100.00;96535.06;5071086;28;20212;-62
2022/04/24 09:56:00;;;;;;;0.93;0.73;;;;;;;9.83;100.00;96542.13;5072433;28;20242;-63
2022/04/24 09:58:26;;;;;;;1.83;0.73;;;;;;;9.88;100.00;96548.66;5072243;28;20677;-63
2022/04/24 10:00:53;;;;;;;1.03;0.80;;;;;;;9.95;100.00;96539.22;5072181;28;20221;-63
2022/04/24 10:03:21;;;;;;;1.10;0.80;;;;;;;9.86;100.00;96547.94;5072521;28;20211;-63
2022/04/24 10:05:49;;;;;;;0.90;0.90;;;;;;;9.94;100.00;96548.09;5072386;28;20220;-63
2022/04/24 10:08:17;;;;;;;1.43;1.17;;;;;;;9.94;100.00;96548.09;5072053;28;20267;-63
2022/04/24 10:10:45;;;;;;;1.40;0.90;;;;;;;9.93;100.00;96550.88;5061275;28;20222;-63
2022/04/24 10:13:13;;;;;;;0.77;0.70;;;;;;;9.94;100.00;96541.97;5060702;28;20215;-63
2022/04/24 10:15:47;;;;;;;0.70;0.70;;;;;;;9.99;100.00;96550.31;5058288;28;20243;-63
2022/04/24 10:18:35;;;;;;;1.43;0.70;;;;;;;9.99;100.00;96547.69;5058251;28;20220;-64
2022/04/24 10:21:42;;;;;;;1.83;0.80;;;;;;;10.02;100.00;96552.66;5067743;28;20218;-62
2022/04/24 10:24:09;;;;;;;1.23;0.80;;;;;;;10.07;100.00;96553.09;5029402;28;20638;-62
2022/04/24 10:26:38;;;;;;;1.40;0.97;;;;;;;10.09;100.00;96553.81;5065282;28;20214;-63
2022/04/24 10:29:07;;;;;;;1.40;1.20;;;;;;;10.12;100.00;96549.09;5072028;28;20426;-63
2022/04/24 10:31:44;;;;;;;1.20;1.00;;;;;;;10.21;100.00;96550.06;5072062;28;20293;-63
2022/04/24 10:34:11;;;;;;;0.90;0.70;;;;;;;10.26;100.00;96553.91;5066087;28;20250;-64
2022/04/24 10:36:38;;;;;;;1.73;0.93;;;;;;;10.23;100.00;96554.22;5071589;28;20242;-65
2022/04/24 10:39:17;;;;;;;1.20;0.90;;;;;;;10.23;100.00;96558.66;5062141;28;20222;-64
2022/04/24 10:41:54;;;;;;;2.30;0.90;;;;;;;10.21;100.00;96560.59;5071456;28;20215;-65
2022/04/24 10:44:20;;;;;;;1.37;0.80;;;;;;;10.11;100.00;96562.41;5068652;28;20217;-64
2022/04/24 10:46:49;;;;;;;1.77;1.00;;;;;;;9.99;100.00;96566.16;5070194;28;20304;-64
2022/04/24 10:49:17;;;;;;;1.73;1.00;;;;;;;9.92;100.00;96560.59;5071734;28;20214;-64
2022/04/24 10:51:45;;;;;;;2.00;1.10;;;;;;;9.93;100.00;96562.28;5069995;28;20219;-64
2022/04/24 10:54:13;;;;;;;2.70;1.00;;;;;;;9.98;100.00;96564.50;5070780;28;20211;-63
2022/04/24 10:56:43;;;;;;;1.07;0.93;;;;;;;9.98;100.00;96569.78;5070063;28;20266;-63
2022/04/24 10:59:15;;;;;;;1.00;0.90;;;;;;;10.03;100.00;96567.53;5068402;28;20203;-63
2022/04/24 11:01:44;;;;;;;1.37;1.00;;;;;;;10.10;100.00;96566.84;5071504;28;20228;-64
2022/04/24 11:04:12;;;;;;;2.10;1.13;;;;;;;10.25;100.00;96572.53;5071622;28;20219;-64
2022/04/24 11:06:39;;;;;;;1.30;0.90;;;;;;;10.34;100.00;96576.97;5071424;28;20216;-64
2022/04/24 11:09:09;;;;;;;1.10;1.00;;;;;;;10.40;100.00;96574.59;5070828;28;20746;-63
2022/04/24 11:11:46;;;;;;;2.13;1.13;;;;;;;10.46;100.00;96576.66;5071157;28;20226;-64
2022/04/24 11:14:18;;;;;;;1.00;0.90;;;;;;;10.43;100.00;96576.94;5069835;28;20211;-64
2022/04/24 11:16:48;;;;;;;2.80;2.23;;;;;;;10.46;100.00;96581.94;5071087;28;20242;-64
2022/04/24 11:19:21;;;;;;;1.90;1.40;;;;;;;10.48;100.00;96579.16;5071103;28;20211;-64
2022/04/24 11:21:48;;;;;;;1.50;1.17;;;;;;;10.49;100.00;96581.66;5071023;28;20237;-64
2022/04/24 11:24:18;;;;;;;1.47;1.20;;;;;;;10.52;100.00;96581.38;5070320;28;20215;-64
2022/04/24 11:26:47;;;;;;;1.77;1.00;;;;;;;10.60;100.00;96593.88;5071533;28;20578;-64
2022/04/24 11:29:15;;;;;;;1.00;0.80;;;;;;;10.65;100.00;96581.06;5070719;28;20590;-64
2022/04/24 11:31:48;;;;;;;1.03;0.80;;;;;;;10.72;100.00;96583.00;5071132;28;20215;-65